createdAt,value
2022-11-09T00:00:51.598Z,12.60
2022-11-09T00:03:18.838Z,12.60
2022-11-09T00:05:55.343Z,12.70
2022-11-09T00:08:22.390Z,12.70
2022-11-09T00:10:49.209Z,12.70
2022-11-09T00:13:16.018Z,12.70
2022-11-09T00:15:42.818Z,12.80
2022-11-09T00:18:09.625Z,12.80
2022-11-09T00:20:36.454Z,12.80
2022-11-09T00:23:03.223Z,12.90
2022-11-09T00:25:30.642Z,12.80
2022-11-09T00:27:57.390Z,12.70
2022-11-09T00:30:26.886Z,12.50
2022-11-09T00:32:53.715Z,12.40
2022-11-09T00:35:20.982Z,12.30
2022-11-09T00:37:47.782Z,12.30
2022-11-09T00:40:14.466Z,12.30
2022-11-09T00:42:41.353Z,12.20
2022-11-09T00:45:08.486Z,12.20
2022-11-09T00:47:35.358Z,12.10
2022-11-09T00:50:03.128Z,12.10
2022-11-09T00:52:29.984Z,12.10
2022-11-09T00:54:56.672Z,12.00
2022-11-09T00:57:23.528Z,12.10
2022-11-09T00:59:51.861Z,12.10
2022-11-09T01:02:19.269Z,12.10
2022-11-09T01:04:46.419Z,12.10
2022-11-09T01:07:13.186Z,12.10
2022-11-09T01:09:40.832Z,12.10
2022-11-09T01:12:07.692Z,12.10
2022-11-09T01:14:34.542Z,12.10
2022-11-09T01:17:03.177Z,12.10
2022-11-09T01:19:30.031Z,12.10
2022-11-09T01:21:57.251Z,12.10
2022-11-09T01:24:24.497Z,12.20
2022-11-09T01:26:51.464Z,12.20
2022-11-09T01:29:21.033Z,12.20
2022-11-09T01:31:48.959Z,12.20
2022-11-09T01:34:17.382Z,12.20
2022-11-09T01:36:44.329Z,12.20
2022-11-09T01:39:11.420Z,12.30
2022-11-09T01:41:38.363Z,12.30
2022-11-09T01:44:12.159Z,12.40
2022-11-09T01:47:02.218Z,12.40
2022-11-09T01:49:59.028Z,12.40
2022-11-09T01:52:38.564Z,12.50
2022-11-09T01:55:13.197Z,12.50
2022-11-09T01:58:20.948Z,12.60
2022-11-09T02:00:49.291Z,12.60
2022-11-09T02:03:23.896Z,12.50
2022-11-09T02:05:52.238Z,12.50
2022-11-09T02:08:22.477Z,12.60
2022-11-09T02:11:01.248Z,12.60
2022-11-09T02:13:29.492Z,12.50
2022-11-09T02:15:56.383Z,12.60
2022-11-09T02:18:23.295Z,12.60
2022-11-09T02:20:57.002Z,12.60
2022-11-09T02:23:26.584Z,12.60
2022-11-09T02:26:18.116Z,12.60
2022-11-09T02:28:45.542Z,12.60
2022-11-09T02:31:16.576Z,12.60
2022-11-09T02:33:55.448Z,12.70
2022-11-09T02:36:23.685Z,12.60
2022-11-09T02:38:53.245Z,12.70
2022-11-09T02:41:21.641Z,12.70
2022-11-09T02:43:50.805Z,12.70
2022-11-09T02:46:37.571Z,12.70
2022-11-09T02:49:05.516Z,12.70
2022-11-09T02:51:32.809Z,12.70
2022-11-09T02:53:59.615Z,12.70
2022-11-09T02:56:26.620Z,12.70
2022-11-09T02:58:54.973Z,12.70
2022-11-09T03:01:22.531Z,12.80
2022-11-09T03:03:49.481Z,12.80
2022-11-09T03:06:16.564Z,12.80
2022-11-09T03:08:45.229Z,12.80
2022-11-09T03:11:12.026Z,12.80
2022-11-09T03:13:38.993Z,12.90
2022-11-09T03:16:09.218Z,12.90
2022-11-09T03:18:38.843Z,12.90
2022-11-09T03:21:07.048Z,12.90
2022-11-09T03:23:34.404Z,12.80
2022-11-09T03:26:02.642Z,12.90
2022-11-09T03:28:29.482Z,12.90
2022-11-09T03:30:57.091Z,12.80
2022-11-09T03:33:24.207Z,12.90
2022-11-09T03:35:51.342Z,12.90
2022-11-09T03:38:18.904Z,12.80
2022-11-09T03:40:47.250Z,12.90
2022-11-09T03:43:14.174Z,13.00
2022-11-09T03:45:41.450Z,13.10
2022-11-09T03:48:08.304Z,13.00
2022-11-09T03:50:35.955Z,13.10
2022-11-09T03:53:03.013Z,13.00
2022-11-09T03:55:30.800Z,13.10
2022-11-09T03:57:57.595Z,13.10
2022-11-09T04:00:24.419Z,13.10
2022-11-09T04:02:51.155Z,13.10
2022-11-09T04:05:18.404Z,13.10
2022-11-09T04:07:50.394Z,13.10
2022-11-09T04:10:17.780Z,13.10
2022-11-09T04:12:44.952Z,13.20
2022-11-09T04:15:12.456Z,13.10
2022-11-09T04:17:39.933Z,13.20
2022-11-09T04:20:08.886Z,13.10
2022-11-09T04:22:35.935Z,13.00
2022-11-09T04:25:03.114Z,13.00
2022-11-09T04:27:31.147Z,13.00
2022-11-09T04:29:57.885Z,13.10
2022-11-09T04:32:24.734Z,13.00
2022-11-09T04:34:51.392Z,13.00
2022-11-09T04:37:18.129Z,13.00
2022-11-09T04:39:44.888Z,13.00
2022-11-09T04:42:11.731Z,13.00
2022-11-09T04:44:38.800Z,12.90
2022-11-09T04:47:05.626Z,12.90
2022-11-09T04:49:32.388Z,12.90
2022-11-09T04:51:59.299Z,12.90
2022-11-09T04:54:26.015Z,12.90
2022-11-09T04:56:53.888Z,12.90
2022-11-09T04:59:20.859Z,12.80
2022-11-09T05:01:47.492Z,12.80
2022-11-09T05:04:14.636Z,12.80
2022-11-09T05:06:41.495Z,12.80
2022-11-09T05:09:08.336Z,12.70
2022-11-09T05:11:36.339Z,12.80
2022-11-09T05:14:04.004Z,12.80
2022-11-09T05:16:31.523Z,12.70
2022-11-09T05:18:58.485Z,12.70
2022-11-09T05:21:25.300Z,12.70
2022-11-09T05:24:01.404Z,12.60
2022-11-09T05:26:31.708Z,12.60
2022-11-09T05:28:59.838Z,12.60
2022-11-09T05:31:27.584Z,12.60
2022-11-09T05:33:55.128Z,12.60
2022-11-09T05:36:22.298Z,12.60
2022-11-09T05:38:49.769Z,12.60
2022-11-09T05:41:17.178Z,12.60
2022-11-09T05:43:45.059Z,12.60
2022-11-09T05:46:13.394Z,12.60
2022-11-09T05:48:42.756Z,12.60
2022-11-09T05:51:13.364Z,12.70
2022-11-09T05:53:46.065Z,12.60
2022-11-09T05:56:15.253Z,12.70
2022-11-09T05:58:42.663Z,12.60
2022-11-09T06:01:13.483Z,12.60
2022-11-09T06:03:44.660Z,12.60
2022-11-09T06:06:14.575Z,12.60
2022-11-09T06:08:41.938Z,12.60
2022-11-09T06:11:10.728Z,12.60
2022-11-09T06:13:38.904Z,12.60
2022-11-09T06:16:07.469Z,12.60
2022-11-09T06:18:36.287Z,12.60
2022-11-09T06:21:04.683Z,12.60
2022-11-09T06:23:31.908Z,12.60
2022-11-09T06:26:12.219Z,12.70
2022-11-09T06:28:40.510Z,12.60
2022-11-09T06:31:11.467Z,12.50
2022-11-09T06:33:38.214Z,12.60
2022-11-09T06:36:06.070Z,12.60
2022-11-09T06:38:32.858Z,12.60
2022-11-09T06:41:00.330Z,12.60
2022-11-09T06:43:27.820Z,12.60
2022-11-09T06:45:55.270Z,12.60
2022-11-09T06:48:22.270Z,12.60
2022-11-09T06:50:49.380Z,12.60
2022-11-09T06:53:17.561Z,12.60
2022-11-09T06:55:50.278Z,12.60
2022-11-09T06:58:19.457Z,12.60
2022-11-09T07:00:46.861Z,12.60
2022-11-09T07:03:18.273Z,12.60
2022-11-09T07:05:45.968Z,12.60
2022-11-09T07:08:13.913Z,12.60
2022-11-09T07:10:41.666Z,12.60
2022-11-09T07:13:09.762Z,12.60
2022-11-09T07:15:38.005Z,12.70
2022-11-09T07:18:06.846Z,12.70
2022-11-09T07:20:33.785Z,12.70
2022-11-09T07:23:00.796Z,12.70
2022-11-09T07:25:28.323Z,12.70
2022-11-09T07:27:55.114Z,12.80
2022-11-09T07:30:21.860Z,12.80
2022-11-09T07:35:35.288Z,12.80
2022-11-09T07:38:02.435Z,12.80
2022-11-09T07:40:30.051Z,12.90
2022-11-09T07:43:01.556Z,12.90
2022-11-09T07:45:30.282Z,12.90
2022-11-09T07:48:04.267Z,13.00
2022-11-09T07:50:32.498Z,12.90
2022-11-09T07:53:00.433Z,12.90
2022-11-09T07:55:28.560Z,13.00
2022-11-09T07:58:00.004Z,13.00
2022-11-09T08:00:28.974Z,13.00
2022-11-09T08:02:55.810Z,13.00
2022-11-09T08:05:22.786Z,13.00
2022-11-09T08:07:58.032Z,13.00
2022-11-09T08:10:26.747Z,13.00
2022-11-09T08:13:02.444Z,13.00
2022-11-09T08:15:29.902Z,13.00
2022-11-09T08:18:01.994Z,13.00
2022-11-09T08:20:30.159Z,13.00
2022-11-09T08:23:02.379Z,13.00
2022-11-09T08:25:31.740Z,13.00
2022-11-09T08:27:58.939Z,13.00
2022-11-09T08:30:26.533Z,13.00
2022-11-09T08:32:53.364Z,12.90
2022-11-09T08:35:21.506Z,13.00
2022-11-09T08:37:49.966Z,13.00
2022-11-09T08:40:19.551Z,13.00
2022-11-09T08:42:46.471Z,13.00
2022-11-09T08:45:14.160Z,13.10
2022-11-09T08:47:41.131Z,13.10
2022-11-09T08:50:09.155Z,13.20
2022-11-09T08:52:36.236Z,13.30
2022-11-09T08:55:03.458Z,13.40
2022-11-09T08:57:30.502Z,13.60
2022-11-09T08:59:57.387Z,13.60
2022-11-09T09:02:24.103Z,13.80
2022-11-09T09:04:50.897Z,13.70
2022-11-09T09:07:17.761Z,13.70
2022-11-09T09:09:44.477Z,13.90
2022-11-09T09:12:11.360Z,14.30
2022-11-09T09:14:38.165Z,14.50
2022-11-09T09:17:04.958Z,14.90
2022-11-09T09:19:32.051Z,15.20
2022-11-09T09:21:59.420Z,15.30
2022-11-09T09:24:26.915Z,15.50
2022-11-09T09:26:54.065Z,15.90
2022-11-09T09:29:21.208Z,15.90
2022-11-09T09:31:48.125Z,16.00
2022-11-09T09:34:15.436Z,16.00
2022-11-09T09:36:47.551Z,15.90
2022-11-09T09:39:15.066Z,15.70
2022-11-09T09:41:51.163Z,15.70
2022-11-09T09:44:43.389Z,15.80
2022-11-09T09:47:10.130Z,15.80
2022-11-09T09:49:39.539Z,16.00
2022-11-09T09:52:14.952Z,16.20
2022-11-09T09:54:50.180Z,16.40
2022-11-09T09:57:21.938Z,16.30
2022-11-09T09:59:52.476Z,16.70
2022-11-09T10:02:24.587Z,17.00
2022-11-09T10:05:00.403Z,17.30
2022-11-09T10:07:47.654Z,17.60
2022-11-09T10:10:32.897Z,17.90
2022-11-09T10:13:05.922Z,17.50
2022-11-09T10:16:04.023Z,16.80
2022-11-09T10:18:47.898Z,16.30
2022-11-09T10:21:42.629Z,15.90
2022-11-09T10:24:28.391Z,15.60
2022-11-09T10:26:56.888Z,15.80
2022-11-09T10:29:46.232Z,16.30
2022-11-09T10:32:22.538Z,17.10
2022-11-09T10:34:53.784Z,17.70
2022-11-09T10:37:34.758Z,18.40
2022-11-09T10:40:25.346Z,18.50
2022-11-09T10:43:12.430Z,18.90
2022-11-09T10:46:05.532Z,19.70
2022-11-09T10:48:53.034Z,19.40
2022-11-09T10:51:40.412Z,19.60
2022-11-09T10:54:28.543Z,19.50
2022-11-09T10:57:19.927Z,18.90
2022-11-09T11:00:08.240Z,18.70
2022-11-09T11:02:54.402Z,19.70
2022-11-09T11:05:39.957Z,21.30
2022-11-09T11:08:30.243Z,21.40
2022-11-09T11:11:35.066Z,20.30
2022-11-09T11:14:36.481Z,19.30
2022-11-09T11:17:35.874Z,18.70
2022-11-09T11:20:32.380Z,18.60
2022-11-09T11:23:23.291Z,18.30
2022-11-09T11:26:32.244Z,17.60
2022-11-09T11:29:37.643Z,17.30
2022-11-09T11:32:23.957Z,17.10
2022-11-09T11:35:22.246Z,17.10
2022-11-09T11:38:22.654Z,17.30
2022-11-09T11:41:30.271Z,17.40
2022-11-09T11:44:30.763Z,17.40
2022-11-09T11:47:58.098Z,17.60
2022-11-09T11:51:02.434Z,17.50
2022-11-09T11:53:47.682Z,17.20
2022-11-09T11:56:46.596Z,17.20
2022-11-09T11:59:37.731Z,17.10
2022-11-09T12:02:51.449Z,17.00
2022-11-09T12:05:54.604Z,16.90
2022-11-09T12:08:52.278Z,17.00
2022-11-09T12:12:05.227Z,17.20
2022-11-09T12:15:15.578Z,17.60
2022-11-09T12:18:09.930Z,18.20
2022-11-09T12:21:18.149Z,18.10
2022-11-09T12:24:27.893Z,19.00
2022-11-09T12:27:35.406Z,19.60
2022-11-09T12:30:25.914Z,19.70
2022-11-09T12:33:18.445Z,19.40
2022-11-09T12:36:33.350Z,19.80
2022-11-09T12:39:41.937Z,20.00
2022-11-09T12:42:43.627Z,19.30
2022-11-09T12:45:38.506Z,18.80
2022-11-09T12:48:30.881Z,18.70
2022-11-09T12:51:20.586Z,18.40
2022-11-09T12:54:11.339Z,18.20
2022-11-09T12:57:04.088Z,17.60
2022-11-09T12:59:58.003Z,17.20
2022-11-09T13:02:58.960Z,17.10
2022-11-09T13:05:47.582Z,16.90
2022-11-09T13:08:33.466Z,16.80
2022-11-09T13:11:26.231Z,16.70
2022-11-09T13:14:26.087Z,16.60
2022-11-09T13:17:24.216Z,16.40
2022-11-09T13:23:59.788Z,16.40
2022-11-09T13:26:46.569Z,16.40
2022-11-09T13:29:41.422Z,16.20
2022-11-09T13:32:29.554Z,16.20
2022-11-09T13:35:40.033Z,16.20
2022-11-09T13:38:26.423Z,16.00
2022-11-09T13:41:42.009Z,16.00
2022-11-09T13:44:32.732Z,16.10
2022-11-09T13:47:33.258Z,16.10
2022-11-09T13:50:24.751Z,16.00
2022-11-09T13:53:39.429Z,15.90
2022-11-09T13:56:35.378Z,15.80
2022-11-09T13:59:32.947Z,15.70
2022-11-09T14:02:24.252Z,15.60
2022-11-09T14:05:35.279Z,15.60
2022-11-09T14:08:25.880Z,15.50
2022-11-09T14:11:32.321Z,15.50
2022-11-09T14:14:47.496Z,15.40
2022-11-09T14:17:52.585Z,15.30
2022-11-09T14:20:59.482Z,15.10
2022-11-09T14:23:45.664Z,14.90
2022-11-09T14:26:31.397Z,14.70
2022-11-09T14:29:25.522Z,14.50
2022-11-09T14:32:36.236Z,14.40
2022-11-09T14:35:39.418Z,14.30
2022-11-09T14:38:45.022Z,14.20
2022-11-09T14:41:36.603Z,14.10
2022-11-09T14:44:40.602Z,14.10
2022-11-09T14:47:33.905Z,14.10
2022-11-09T14:50:26.026Z,14.10
2022-11-09T14:53:22.651Z,14.00
2022-11-09T14:56:11.460Z,14.00
2022-11-09T14:58:58.127Z,14.10
2022-11-09T15:02:07.539Z,14.10
2022-11-09T15:04:57.925Z,14.00
2022-11-09T15:07:47.658Z,14.00
2022-11-09T15:10:33.873Z,13.90
2022-11-09T15:13:38.653Z,14.00
2022-11-09T15:16:29.388Z,13.90
2022-11-09T15:19:31.309Z,13.80
2022-11-09T15:22:53.203Z,13.90
2022-11-09T15:25:39.576Z,13.80
2022-11-09T15:28:28.216Z,13.80
2022-11-09T15:31:16.745Z,13.70
2022-11-09T15:34:02.758Z,13.60
2022-11-09T15:36:54.804Z,13.70
2022-11-09T15:39:40.455Z,13.70
2022-11-09T15:42:26.914Z,13.70
2022-11-09T15:45:18.780Z,13.70
2022-11-09T15:48:04.656Z,13.70
2022-11-09T15:50:50.691Z,13.70
2022-11-09T15:53:36.199Z,13.80
2022-11-09T15:56:24.812Z,13.70
2022-11-09T15:59:36.832Z,13.70
2022-11-09T16:02:22.673Z,13.80
2022-11-09T16:05:08.787Z,13.80
2022-11-09T16:07:55.571Z,13.70
2022-11-09T16:10:43.713Z,13.70
2022-11-09T16:13:29.853Z,13.70
2022-11-09T16:16:16.288Z,13.70
2022-11-09T16:19:02.492Z,13.60
2022-11-09T16:21:48.477Z,13.50
2022-11-09T16:24:34.173Z,13.50
2022-11-09T16:27:48.514Z,13.50
2022-11-09T16:30:26.128Z,13.50
2022-11-09T16:33:12.263Z,13.50
2022-11-09T16:36:00.712Z,13.40
2022-11-09T16:38:48.915Z,13.30
2022-11-09T16:41:38.052Z,13.40
2022-11-09T16:44:25.223Z,13.30
2022-11-09T16:47:14.377Z,13.40
2022-11-09T16:50:00.399Z,13.30
2022-11-09T16:52:46.162Z,13.30
2022-11-09T16:55:32.054Z,13.20
2022-11-09T16:58:18.261Z,13.30
2022-11-09T17:01:11.610Z,13.30
2022-11-09T17:03:59.009Z,13.30
2022-11-09T17:06:44.346Z,13.30
2022-11-09T17:09:33.995Z,13.20
2022-11-09T17:12:19.859Z,13.20
2022-11-09T17:15:06.541Z,13.10
2022-11-09T17:17:52.321Z,13.10
2022-11-09T17:20:46.604Z,13.10
2022-11-09T17:23:33.893Z,13.00
2022-11-09T17:26:19.941Z,13.00
2022-11-09T17:29:06.032Z,13.00
2022-11-09T17:31:54.524Z,13.00
2022-11-09T17:34:39.998Z,13.00
2022-11-09T17:37:26.363Z,13.00
2022-11-09T17:40:12.287Z,13.00
2022-11-09T17:42:57.861Z,13.10
2022-11-09T17:45:45.826Z,13.00
2022-11-09T17:48:33.768Z,13.00
2022-11-09T17:51:19.982Z,13.00
2022-11-09T17:54:06.047Z,13.00
2022-11-09T17:56:52.106Z,13.00
2022-11-09T17:59:38.132Z,12.90
2022-11-09T18:02:23.786Z,12.90
2022-11-09T18:05:11.021Z,12.90
2022-11-09T18:07:56.505Z,12.90
2022-11-09T18:10:44.190Z,13.00
2022-11-09T18:13:29.968Z,13.10
2022-11-09T18:16:18.062Z,13.10
2022-11-09T18:19:05.171Z,13.10
2022-11-09T18:21:51.033Z,13.00
2022-11-09T18:24:36.828Z,13.00
2022-11-09T18:27:26.089Z,13.00
2022-11-09T18:30:16.959Z,13.00
2022-11-09T18:33:02.829Z,13.00
2022-11-09T18:36:03.647Z,12.90
2022-11-09T18:38:52.532Z,12.90
2022-11-09T18:41:38.212Z,12.80
2022-11-09T18:44:23.906Z,12.80
2022-11-09T18:47:09.927Z,12.70
2022-11-09T18:49:55.410Z,12.70
2022-11-09T18:52:41.110Z,12.70
2022-11-09T18:55:27.018Z,12.70
2022-11-09T18:58:13.208Z,12.80
2022-11-09T19:01:08.995Z,12.70
2022-11-09T19:03:59.266Z,12.60
2022-11-09T19:06:45.300Z,12.50
2022-11-09T19:09:38.934Z,12.50
2022-11-09T19:12:25.072Z,12.40
2022-11-09T19:15:11.561Z,12.40
2022-11-09T19:17:57.282Z,12.40
2022-11-09T19:20:43.105Z,12.40
2022-11-09T19:23:32.971Z,12.40
2022-11-09T19:26:21.594Z,12.40
2022-11-09T19:29:08.334Z,12.40
2022-11-09T19:31:55.107Z,12.30
2022-11-09T19:34:42.555Z,12.30
2022-11-09T19:37:27.884Z,12.30
2022-11-09T19:40:14.417Z,12.20
2022-11-09T19:43:00.552Z,12.20
2022-11-09T19:45:46.454Z,12.10
2022-11-09T19:48:34.699Z,12.10
2022-11-09T19:51:20.713Z,12.10
2022-11-09T19:54:06.843Z,12.00
2022-11-09T19:56:53.387Z,12.00
2022-11-09T19:59:39.374Z,12.00
2022-11-09T20:05:37.685Z,12.00
2022-11-09T20:14:45.317Z,11.90
2022-11-09T20:17:33.390Z,11.80
2022-11-09T20:20:20.947Z,11.70
2022-11-09T20:23:10.935Z,11.60
2022-11-09T20:26:08.221Z,11.50
2022-11-09T20:28:58.883Z,11.40
2022-11-09T20:31:49.190Z,11.40
2022-11-09T20:34:35.011Z,11.40
2022-11-09T20:37:29.318Z,11.40
2022-11-09T20:40:16.774Z,11.40
2022-11-09T20:43:02.632Z,11.40
2022-11-09T20:45:48.325Z,11.50
2022-11-09T20:51:39.563Z,11.30
2022-11-09T20:54:25.301Z,11.20
2022-11-09T20:57:12.386Z,11.20
2022-11-09T20:59:55.036Z,11.20
2022-11-09T21:02:41.696Z,11.20
2022-11-09T21:05:26.815Z,11.10
2022-11-09T21:08:12.391Z,11.10
2022-11-09T21:11:01.295Z,11.00
2022-11-09T21:13:51.856Z,11.00
2022-11-09T21:16:37.224Z,10.90
2022-11-09T21:19:23.162Z,10.80
2022-11-09T21:22:08.910Z,10.90
2022-11-09T21:25:13.097Z,10.90
2022-11-09T21:28:17.289Z,10.90
2022-11-09T21:31:03.223Z,10.90
2022-11-09T21:33:51.557Z,10.90
2022-11-09T21:36:36.971Z,10.90
2022-11-09T21:39:22.655Z,10.80
2022-11-09T21:42:08.350Z,10.80
2022-11-09T21:44:54.258Z,10.80
2022-11-09T21:47:39.807Z,10.80
2022-11-09T21:50:25.446Z,10.70
2022-11-09T21:53:11.026Z,10.70
2022-11-09T21:55:59.667Z,10.50
2022-11-09T21:58:49.025Z,10.40
2022-11-09T22:01:35.244Z,10.40
2022-11-09T22:04:20.724Z,10.30
2022-11-09T22:07:06.451Z,10.20
2022-11-09T22:13:17.042Z,10.10
2022-11-09T22:16:07.100Z,10.00
2022-11-09T22:19:11.912Z,10.10
2022-11-09T22:21:57.084Z,10.00
2022-11-09T22:24:42.694Z,10.00
2022-11-09T22:27:31.149Z,10.00
2022-11-09T22:30:16.947Z,10.00
2022-11-09T22:33:02.443Z,10.10
2022-11-09T22:35:56.202Z,10.00
2022-11-09T22:38:41.874Z,10.00
2022-11-09T22:41:27.760Z,9.90
2022-11-09T22:44:13.404Z,9.90
2022-11-09T22:46:59.040Z,9.80
2022-11-09T22:49:44.476Z,9.80
2022-11-09T22:52:30.338Z,9.80
2022-11-09T22:55:16.080Z,9.70
2022-11-09T22:58:01.372Z,9.70
2022-11-09T23:00:47.588Z,9.70
2022-11-09T23:03:33.983Z,9.70
2022-11-09T23:06:21.304Z,9.70
2022-11-09T23:09:07.009Z,9.70
2022-11-09T23:11:52.138Z,9.70
2022-11-09T23:14:57.844Z,9.80
2022-11-09T23:18:01.854Z,9.80
2022-11-09T23:20:48.047Z,9.90
2022-11-09T23:23:33.266Z,9.90
2022-11-09T23:26:19.828Z,9.90
2022-11-09T23:29:04.936Z,9.90
2022-11-09T23:31:50.320Z,9.90
2022-11-09T23:34:35.737Z,10.00
2022-11-09T23:37:21.331Z,10.00
2022-11-09T23:40:07.569Z,10.10
2022-11-09T23:43:07.067Z,10.20
2022-11-09T23:45:52.399Z,10.20
2022-11-09T23:48:39.252Z,10.10
2022-11-09T23:51:24.539Z,10.10
2022-11-09T23:54:10.152Z,10.10
2022-11-09T23:56:55.667Z,10.20
2022-11-09T23:59:41.085Z,10.10
